Time;durP1;ratioP1;P1;durP2;ratioP2;P2;SDS_P1;SDS_P2;PMS_P1;PMS_P2;Temp;Humidity;BMP_temperature;BMP_pressure;BME280_temperature;BME280_humidity;BME280_pressure;Samples;Min_cycle;Max_cycle;Signal;HPM_P1;HPM_P2
2022/11/12 00:02:13;;;;;;;23.20;11.43;;;;;;;9.79;59.71;101295.31;4410296;32;20144;-89
2022/11/12 00:04:38;;;;;;;20.20;11.02;;;;;;;10.01;59.73;101296.09;4410575;32;20129;-89
2022/11/12 00:07:04;;;;;;;20.55;11.63;;;;;;;10.02;59.74;101292.59;4409890;32;20524;-90
2022/11/12 00:09:29;;;;;;;21.65;11.93;;;;;;;9.91;59.73;101294.37;4425516;32;20211;-89
2022/11/12 00:11:55;;;;;;;22.75;11.95;;;;;;;9.90;59.73;101290.06;4412846;32;20152;-89
2022/11/12 00:14:20;;;;;;;26.02;13.73;;;;;;;10.10;59.74;101289.97;4412766;32;20413;-89
2022/11/12 00:16:45;;;;;;;24.02;12.70;;;;;;;10.00;59.73;101283.09;4412781;32;20117;-88
2022/11/12 00:19:11;;;;;;;27.62;12.63;;;;;;;10.11;59.74;101276.94;4411987;32;20149;-89
2022/11/12 00:21:36;;;;;;;27.25;12.93;;;;;;;10.05;59.73;101284.78;4395342;32;20137;-89
2022/11/12 00:24:02;;;;;;;24.30;12.65;;;;;;;10.09;59.74;101276.09;4407752;32;24182;-89
2022/11/12 00:26:27;;;;;;;22.70;12.30;;;;;;;10.18;59.74;101272.59;4397799;32;20113;-89
2022/11/12 00:28:52;;;;;;;25.77;12.05;;;;;;;10.32;59.75;101275.13;4394407;32;31181;-88
2022/11/12 00:31:18;;;;;;;24.95;12.80;;;;;;;10.41;59.76;101265.53;4412640;32;24707;-90
2022/11/12 00:33:43;;;;;;;21.67;12.25;;;;;;;10.41;59.76;101268.13;4422942;32;20166;-90
2022/11/12 00:36:09;;;;;;;25.95;12.77;;;;;;;10.55;59.75;101274.94;4397486;32;20094;-90
2022/11/12 00:38:34;;;;;;;23.45;13.15;;;;;;;10.47;59.76;101272.41;4397550;32;20454;-90
2022/11/12 00:41:00;;;;;;;23.35;12.37;;;;;;;10.55;59.77;101275.81;4386284;32;20159;-91
2022/11/12 00:43:25;;;;;;;24.02;11.98;;;;;;;10.63;59.77;101271.41;4397507;32;21010;-92
2022/11/12 00:45:51;;;;;;;21.23;12.43;;;;;;;10.64;59.77;101267.06;4397759;32;20101;-92
2022/11/12 00:48:16;;;;;;;21.73;12.37;;;;;;;10.76;59.77;101257.41;4396113;32;26628;-91
2022/11/12 00:50:42;;;;;;;22.13;11.80;;;;;;;10.76;59.77;101256.56;4390508;32;20132;-92
2022/11/12 00:53:07;;;;;;;22.25;11.90;;;;;;;10.74;59.77;101251.34;4399200;32;20165;-91
2022/11/12 00:55:32;;;;;;;23.02;11.77;;;;;;;10.87;59.78;101249.50;4395254;32;20137;-92
2022/11/12 00:57:58;;;;;;;23.17;12.45;;;;;;;10.78;59.78;101244.38;4405176;32;26296;-92
2022/11/12 01:00:24;;;;;;;21.73;12.73;;;;;;;10.69;59.78;101242.72;4405896;32;20162;-92
2022/11/12 01:02:49;;;;;;;24.20;11.63;;;;;;;10.67;59.77;101251.44;4391241;32;20093;-91
2022/11/12 01:05:15;;;;;;;30.48;13.65;;;;;;;10.69;59.78;101250.53;4409846;32;21571;-92
2022/11/12 01:07:40;;;;;;;22.62;12.45;;;;;;;10.69;59.78;101250.53;4395167;32;20588;-92
2022/11/12 01:10:06;;;;;;;22.33;12.40;;;;;;;10.61;59.76;101239.31;4406907;32;20142;-92
2022/11/12 01:12:32;;;;;;;20.90;12.20;;;;;;;10.85;59.78;101240.81;4409545;32;20090;-92
2022/11/12 01:14:57;;;;;;;28.90;13.18;;;;;;;10.66;59.76;101244.50;4394751;32;20443;-91
2022/11/12 01:17:23;;;;;;;25.33;12.25;;;;;;;10.72;59.77;101234.88;4426874;32;20472;-91
2022/11/12 01:19:48;;;;;;;21.52;12.00;;;;;;;10.81;59.78;101222.66;4412316;32;20113;-92
2022/11/12 01:22:14;;;;;;;26.67;12.68;;;;;;;10.91;59.77;101230.37;4437223;32;20088;-92
2022/11/12 01:24:39;;;;;;;29.63;13.85;;;;;;;10.97;59.78;101227.69;4428759;32;20120;-93
2022/11/12 01:27:05;;;;;;;23.15;12.13;;;;;;;10.76;59.77;101225.31;4420834;32;20133;-93
2022/11/12 01:29:30;;;;;;;21.17;12.20;;;;;;;10.81;59.77;101220.03;4415667;32;20120;-93
2022/11/12 01:31:55;;;;;;;22.05;12.35;;;;;;;10.91;59.78;101211.28;4415587;32;20139;-92
2022/11/12 01:34:21;;;;;;;25.80;12.93;;;;;;;10.70;59.78;101215.81;4412016;32;20119;-93
2022/11/12 01:36:46;;;;;;;26.65;14.23;;;;;;;10.76;59.77;101215.75;4405284;32;20195;-93
2022/11/12 01:39:12;;;;;;;27.70;13.43;;;;;;;10.70;59.76;101214.94;4400016;32;20121;-92
2022/11/12 01:41:38;;;;;;;22.33;12.60;;;;;;;10.85;59.78;101212.19;4410353;32;20188;-93
2022/11/12 01:44:08;;;;;;;25.48;13.10;;;;;;;10.76;59.77;101213.13;4410291;32;20120;-93
2022/11/12 01:46:34;;;;;;;29.05;13.40;;;;;;;10.85;59.77;101216.53;4412967;32;20108;-92
2022/11/12 01:49:01;;;;;;;24.17;13.05;;;;;;;10.81;59.78;101213.09;4412898;32;20397;-93
2022/11/12 01:51:30;;;;;;;26.45;13.93;;;;;;;10.85;59.77;101219.13;4411090;32;20152;-92
2022/11/12 01:53:56;;;;;;;22.37;12.87;;;;;;;10.75;59.77;101216.63;4417013;32;20096;-92
2022/11/12 01:56:22;;;;;;;24.63;13.62;;;;;;;10.86;59.78;101216.50;4425096;32;20207;-93
2022/11/12 01:58:48;;;;;;;27.52;14.10;;;;;;;10.82;59.78;101214.81;4399795;32;20106;-93
2022/11/12 02:01:13;;;;;;;27.08;14.30;;;;;;;10.73;59.77;101213.16;4397572;32;20124;-93
2022/11/12 02:03:39;;;;;;;28.27;14.27;;;;;;;10.83;59.77;101206.13;4411150;32;27240;-92
2022/11/12 02:06:07;;;;;;;24.33;13.70;;;;;;;10.75;59.77;101215.75;4427291;32;20160;-92
2022/11/12 02:08:33;;;;;;;29.33;14.95;;;;;;;10.80;59.77;101216.56;4410298;32;20762;-93
2022/11/12 02:11:05;;;;;;;28.27;14.38;;;;;;;10.76;59.77;101215.75;4403306;32;20507;-91
2022/11/12 02:16:14;;;;;;;27.73;14.85;;;;;;;10.52;59.76;101210.75;4418988;32;20627;-93
2022/11/12 02:18:40;;;;;;;29.37;14.13;;;;;;;10.51;59.76;101202.97;4409276;32;21997;-92
2022/11/12 02:21:07;;;;;;;27.95;14.38;;;;;;;10.38;59.75;101200.44;4411465;32;20097;-92
2022/11/12 02:23:32;;;;;;;29.73;14.82;;;;;;;10.57;59.76;101200.28;4409470;32;20100;-92
2022/11/12 02:25:59;;;;;;;30.60;15.27;;;;;;;10.48;59.76;101188.22;4414478;32;20125;-93
2022/11/12 02:28:24;;;;;;;29.77;15.88;;;;;;;10.53;59.75;101185.59;4418010;32;20109;-93
2022/11/12 02:30:49;;;;;;;27.55;14.23;;;;;;;10.25;59.75;101184.94;4412357;32;20100;-92
2022/11/12 02:33:15;;;;;;;29.48;14.87;;;;;;;10.31;59.75;101183.16;4413939;32;31314;-92
2022/11/12 02:35:40;;;;;;;29.08;15.82;;;;;;;10.39;59.75;101183.09;4413030;32;20446;-93
2022/11/12 02:38:06;;;;;;;29.30;15.75;;;;;;;10.15;59.73;101190.16;4411566;32;21974;-92
2022/11/12 02:40:31;;;;;;;29.98;16.02;;;;;;;10.20;59.74;101187.56;4405503;32;20128;-93
2022/11/12 02:42:57;;;;;;;35.58;16.55;;;;;;;10.06;59.74;101190.25;4410666;32;20108;-91
2022/11/12 02:45:23;;;;;;;31.77;17.12;;;;;;;9.91;59.72;101192.06;4440625;32;20109;-92
2022/11/12 02:47:48;;;;;;;35.08;18.35;;;;;;;9.74;59.72;101203.47;4419967;32;20132;-92
2022/11/12 02:50:14;;;;;;;34.78;17.77;;;;;;;9.50;59.71;101200.97;4411201;32;20156;-91
2022/11/12 02:52:39;;;;;;;30.37;17.70;;;;;;;9.75;59.72;101200.00;4407871;32;20453;-92
2022/11/12 02:55:06;;;;;;;33.40;16.50;;;;;;;9.59;59.71;101203.53;4410695;32;20149;-92
2022/11/12 02:57:32;;;;;;;31.20;15.90;;;;;;;9.49;59.71;101212.25;4398286;32;20184;-92
2022/11/12 02:59:57;;;;;;;34.22;17.08;;;;;;;9.48;59.70;101211.38;4408173;32;20081;-90
2022/11/12 03:02:22;;;;;;;32.50;17.58;;;;;;;9.64;59.71;101214.75;4404891;32;20276;-91
2022/11/12 03:04:48;;;;;;;33.40;16.83;;;;;;;9.62;59.71;101211.31;4413967;32;22734;-92
2022/11/12 03:07:13;;;;;;;33.30;17.52;;;;;;;9.62;59.71;101208.72;4414094;32;20117;-91
2022/11/12 03:09:39;;;;;;;34.42;16.70;;;;;;;9.65;59.72;101202.63;4413896;32;20123;-91
2022/11/12 03:12:04;;;;;;;34.55;17.80;;;;;;;9.64;59.70;101206.09;4410837;32;24952;-92
2022/11/12 03:14:30;;;;;;;33.83;18.35;;;;;;;9.64;59.71;101216.50;4405675;32;20121;-91
2022/11/12 03:16:55;;;;;;;30.00;16.77;;;;;;;9.63;59.70;101202.63;4402862;32;20116;-92
2022/11/12 03:19:20;;;;;;;34.30;18.10;;;;;;;9.63;59.70;101201.78;4408686;32;20113;-91
2022/11/12 03:21:46;;;;;;;31.87;17.33;;;;;;;9.57;59.70;101191.41;4420697;32;21843;-92
2022/11/12 03:24:11;;;;;;;35.55;18.60;;;;;;;9.69;59.72;101199.13;4410726;32;20441;-91
2022/11/12 03:26:37;;;;;;;43.80;18.60;;;;;;;9.68;59.72;101202.59;4426615;32;20161;-92
2022/11/12 03:29:02;;;;;;;33.20;17.58;;;;;;;9.46;59.70;101202.75;4414529;32;20200;-93
2022/11/12 03:31:27;;;;;;;35.95;17.12;;;;;;;9.71;59.71;101207.81;4412651;32;20092;-93
2022/11/12 03:33:53;;;;;;;33.30;17.10;;;;;;;9.33;59.69;101211.44;4407847;32;28176;-94
2022/11/12 03:36:18;;;;;;;31.33;16.80;;;;;;;9.42;59.71;101215.72;4412445;32;20179;-93
2022/11/12 03:38:44;;;;;;;36.00;17.50;;;;;;;9.41;59.70;101214.88;4409178;32;20786;-93
2022/11/12 03:41:09;;;;;;;35.97;17.98;;;;;;;9.37;59.70;101217.50;4412928;32;20690;-93
2022/11/12 03:43:34;;;;;;;32.15;17.02;;;;;;;9.65;59.72;101213.03;4409599;32;20137;-92
2022/11/12 03:46:00;;;;;;;38.67;18.33;;;;;;;9.68;59.71;101207.81;4412408;32;20148;-93
2022/11/12 03:48:26;;;;;;;37.40;17.40;;;;;;;9.32;59.69;101220.09;4414385;32;20152;-92
2022/11/12 03:50:51;;;;;;;33.80;16.85;;;;;;;9.41;59.69;101217.47;4414907;32;20713;-94
2022/11/12 03:53:17;;;;;;;31.40;16.52;;;;;;;9.32;59.69;101214.03;4413462;32;20411;-94
2022/11/12 03:55:42;;;;;;;36.45;16.75;;;;;;;9.31;59.69;101218.38;4405426;32;20125;-94
2022/11/12 03:58:08;;;;;;;33.10;16.45;;;;;;;9.13;59.68;101228.81;4411731;32;20132;-94
2022/11/12 04:00:33;;;;;;;30.98;16.75;;;;;;;9.29;59.70;101230.50;4415747;32;20141;-94
2022/11/12 04:02:58;;;;;;;35.03;17.08;;;;;;;9.17;59.68;101222.75;4416327;32;20872;-94
2022/11/12 04:10:58;;;;;;;33.55;16.95;;;;;;;9.10;59.68;101227.09;4431166;32;20098;-95
2022/11/12 04:13:26;;;;;;;38.65;17.23;;;;;;;9.18;59.68;101224.47;4438290;32;20427;-95
2022/11/12 04:21:57;;;;;;;37.72;18.08;;;;;;;8.82;59.67;101213.31;4433809;32;20111;-95
2022/11/12 04:27:22;;;;;;;33.08;17.50;;;;;;;8.89;59.67;101214.16;4431555;32;20166;-93
2022/11/12 04:32:32;;;;;;;38.35;16.65;;;;;;;8.96;59.67;101204.59;4421402;32;20111;-92
2022/11/12 04:34:58;;;;;;;32.92;17.17;;;;;;;9.00;59.67;101203.75;4415353;32;20148;-93
2022/11/12 04:37:24;;;;;;;32.60;17.30;;;;;;;8.82;59.67;101197.72;4413783;32;20417;-92
2022/11/12 04:39:50;;;;;;;32.97;17.92;;;;;;;8.78;59.67;101201.19;4412379;32;20081;-92
2022/11/12 04:45:01;;;;;;;34.42;15.55;;;;;;;8.82;59.67;101205.50;4427928;32;20124;-92
2022/11/12 04:47:33;;;;;;;27.92;15.05;;;;;;;8.78;59.66;101208.12;4427464;32;20113;-89
2022/11/12 04:49:58;;;;;;;27.10;14.95;;;;;;;8.68;59.66;101207.25;4424517;32;20875;-90
2022/11/12 04:52:25;;;;;;;28.58;14.95;;;;;;;8.42;59.64;101214.19;4424226;32;20098;-91
2022/11/12 04:54:50;;;;;;;30.20;15.70;;;;;;;8.44;59.65;101208.12;4424226;32;20511;-90
2022/11/12 04:57:16;;;;;;;30.75;14.95;;;;;;;8.47;59.64;101202.94;4411663;32;20117;-90
2022/11/12 04:59:41;;;;;;;29.45;15.27;;;;;;;8.41;59.65;101207.28;4410961;32;20939;-91
2022/11/12 05:02:06;;;;;;;27.77;14.20;;;;;;;8.54;59.65;101206.41;4411468;32;20169;-90
2022/11/12 05:04:32;;;;;;;29.70;14.90;;;;;;;8.48;59.65;101199.47;4410566;32;29723;-89
2022/11/12 05:06:58;;;;;;;29.77;15.60;;;;;;;8.70;59.66;101202.06;4424268;32;20651;-90
2022/11/12 05:09:24;;;;;;;26.67;14.38;;;;;;;8.35;59.64;101208.12;4411329;32;21963;-91
2022/11/12 05:11:50;;;;;;;27.10;13.82;;;;;;;8.23;59.63;101215.88;4411961;32;20102;-91
2022/11/12 05:14:16;;;;;;;29.33;14.38;;;;;;;8.14;59.62;101221.06;4421264;32;20109;-91
2022/11/12 05:16:41;;;;;;;32.63;15.70;;;;;;;7.98;59.61;101217.56;4408632;32;20109;-91
2022/11/12 05:19:06;;;;;;;27.37;14.27;;;;;;;8.31;59.64;101219.34;4410909;32;20133;-91
2022/11/12 05:24:16;;;;;;;28.02;13.62;;;;;;;7.92;59.62;101217.56;4415650;32;21065;-92
2022/11/12 05:26:41;;;;;;;28.48;14.80;;;;;;;7.95;59.62;101223.59;4410947;32;24499;-92
2022/11/12 05:29:07;;;;;;;26.48;13.23;;;;;;;7.84;59.60;101227.91;4413614;32;20168;-92
2022/11/12 05:31:32;;;;;;;27.87;13.93;;;;;;;7.86;59.62;101228.78;4413856;32;20105;-92
2022/11/12 05:33:57;;;;;;;32.53;14.23;;;;;;;7.82;59.61;101231.38;4425651;32;20155;-92
2022/11/12 05:36:23;;;;;;;28.75;13.38;;;;;;;7.74;59.60;101239.09;4411129;32;20153;-91
2022/11/12 05:38:48;;;;;;;31.08;14.65;;;;;;;7.80;59.61;101228.75;4410370;32;24477;-90
2022/11/12 05:41:14;;;;;;;25.85;14.02;;;;;;;7.78;59.61;101232.19;4422887;32;26144;-91
2022/11/12 05:43:39;;;;;;;27.15;13.65;;;;;;;7.76;59.61;101236.50;4410092;32;32865;-90
2022/11/12 05:46:04;;;;;;;26.30;13.68;;;;;;;7.67;59.60;101230.44;4423418;32;20147;-91
2022/11/12 05:48:30;;;;;;;28.55;13.95;;;;;;;7.80;59.61;101227.88;4410883;32;20101;-91
2022/11/12 05:50:55;;;;;;;27.23;13.32;;;;;;;7.87;59.62;101225.31;4423383;32;20144;-91
2022/11/12 05:53:21;;;;;;;29.98;13.35;;;;;;;7.72;59.61;101229.59;4420874;32;20157;-91
2022/11/12 05:55:46;;;;;;;24.63;12.93;;;;;;;7.76;59.61;101236.50;4420630;32;20144;-91
2022/11/12 05:58:11;;;;;;;24.10;12.15;;;;;;;7.69;59.60;101238.22;4412926;32;20140;-91
2022/11/12 06:00:40;;;;;;;25.70;12.35;;;;;;;7.68;59.60;101242.53;4413460;32;20483;-90
2022/11/12 06:03:06;;;;;;;24.30;12.70;;;;;;;7.67;59.60;101246.00;4413752;32;20139;-90
2022/11/12 06:05:32;;;;;;;26.90;12.90;;;;;;;7.64;59.60;101251.16;4406279;32;20113;-91
2022/11/12 06:07:57;;;;;;;22.80;12.85;;;;;;;7.80;59.61;101246.87;4419924;32;20082;-92
2022/11/12 06:10:22;;;;;;;23.90;13.00;;;;;;;7.79;59.61;101255.53;4436494;32;20493;-91
2022/11/12 06:12:48;;;;;;;27.98;13.38;;;;;;;7.76;59.60;101252.06;4410529;32;20516;-91
2022/11/12 06:15:13;;;;;;;25.27;11.80;;;;;;;8.07;59.63;101248.72;4414598;32;20101;-91
2022/11/12 06:17:39;;;;;;;27.45;13.57;;;;;;;7.99;59.63;101253.84;4423215;32;20094;-91
2022/11/12 06:20:05;;;;;;;24.27;12.50;;;;;;;8.01;59.62;101256.44;4410167;32;30090;-91
2022/11/12 06:22:30;;;;;;;23.77;12.40;;;;;;;8.14;59.63;101258.22;4410717;32;20117;-91
2022/11/12 06:24:55;;;;;;;23.60;11.65;;;;;;;8.22;59.62;101266.00;4422938;32;29321;-91
2022/11/12 06:27:22;;;;;;;24.83;11.48;;;;;;;8.06;59.62;101259.09;4410669;32;20158;-91
2022/11/12 06:29:48;;;;;;;22.70;10.80;;;;;;;8.16;59.63;101279.84;4439444;32;20089;-91
2022/11/12 06:32:15;;;;;;;27.23;11.40;;;;;;;8.07;59.63;101279.84;4415732;32;23155;-91
2022/11/12 06:34:40;;;;;;;18.80;10.18;;;;;;;7.86;59.62;101279.75;4411247;32;20156;-92
2022/11/12 06:37:05;;;;;;;18.98;10.60;;;;;;;7.83;59.61;101282.34;4410816;32;20403;-92
2022/11/12 06:39:31;;;;;;;24.73;10.48;;;;;;;7.96;59.62;101286.69;4422755;32;28794;-91
2022/11/12 06:41:56;;;;;;;22.08;10.57;;;;;;;7.93;59.62;101290.16;4430171;32;25356;-92
2022/11/12 06:44:22;;;;;;;23.12;10.00;;;;;;;7.98;59.61;101292.75;4411385;32;20120;-92
2022/11/12 06:46:47;;;;;;;22.58;11.38;;;;;;;8.12;59.63;101293.69;4413923;32;20134;-91
2022/11/12 06:49:12;;;;;;;18.50;9.73;;;;;;;8.11;59.63;101299.72;4412843;32;20137;-91
2022/11/12 06:51:38;;;;;;;21.95;9.57;;;;;;;8.13;59.63;101303.19;4413169;32;21576;-90
2022/11/12 06:54:04;;;;;;;24.85;10.57;;;;;;;8.16;59.63;101302.31;4427168;32;20119;-92
2022/11/12 06:56:30;;;;;;;20.95;10.35;;;;;;;8.13;59.62;101290.22;4430210;32;20481;-91
2022/11/12 06:58:55;;;;;;;21.33;10.43;;;;;;;8.23;59.63;101298.88;4420684;32;20101;-93
2022/11/12 07:01:22;;;;;;;20.98;11.52;;;;;;;8.36;59.63;101295.50;4443445;32;21644;-92
2022/11/12 07:03:50;;;;;;;25.77;11.05;;;;;;;8.42;59.64;101297.22;4423364;32;20116;-91
2022/11/12 07:06:18;;;;;;;19.42;9.90;;;;;;;8.36;59.64;101290.31;4455924;32;20787;-90
2022/11/12 07:08:43;;;;;;;22.65;11.77;;;;;;;8.47;59.65;101295.50;4431052;32;20089;-92
2022/11/12 07:11:09;;;;;;;23.80;12.32;;;;;;;8.42;59.64;101294.63;4428395;32;20139;-93
2022/11/12 07:13:34;;;;;;;21.95;12.43;;;;;;;8.52;59.65;101299.84;4404304;32;21665;-92
2022/11/12 07:16:00;;;;;;;24.75;12.18;;;;;;;8.60;59.66;101302.44;4415160;32;20136;-91
2022/11/12 07:18:25;;;;;;;24.50;11.68;;;;;;;8.65;59.66;101308.50;4402221;32;20132;-92
2022/11/12 07:20:55;;;;;;;23.33;11.85;;;;;;;8.86;59.67;101316.28;4407050;32;20110;-92
2022/11/12 07:23:21;;;;;;;26.95;13.40;;;;;;;9.18;59.68;101318.00;4412494;32;20109;-91
2022/11/12 07:25:46;;;;;;;30.52;15.30;;;;;;;9.28;59.69;101322.31;4413357;32;20588;-93
2022/11/12 07:28:11;;;;;;;32.25;14.98;;;;;;;9.36;59.70;101314.50;4440232;32;20116;-92
2022/11/12 07:30:37;;;;;;;31.17;14.40;;;;;;;9.30;59.70;101310.19;4414743;32;20109;-91
2022/11/12 07:33:02;;;;;;;22.85;11.93;;;;;;;9.26;59.68;101305.88;4415087;32;20143;-91
2022/11/12 07:35:28;;;;;;;21.83;11.75;;;;;;;9.46;59.70;101311.91;4415314;32;20153;-91
2022/11/12 07:37:53;;;;;;;19.70;11.20;;;;;;;9.48;59.70;101315.34;4399788;32;20446;-92
2022/11/12 07:40:18;;;;;;;17.37;10.95;;;;;;;9.69;59.71;101305.75;4408777;32;20145;-92
2022/11/12 07:42:44;;;;;;;20.10;11.73;;;;;;;9.82;59.72;101310.03;4411921;32;20465;-93
2022/11/12 07:45:09;;;;;;;19.62;11.25;;;;;;;9.96;59.73;101297.84;4399703;32;29446;-92
2022/11/12 07:47:35;;;;;;;20.95;10.95;;;;;;;9.99;59.73;101294.37;4424354;32;20115;-92
2022/11/12 07:50:00;;;;;;;20.55;11.63;;;;;;;10.06;59.73;101294.31;4427249;32;24294;-92
2022/11/12 07:52:25;;;;;;;24.60;12.45;;;;;;;10.18;59.74;101289.94;4427959;32;20101;-92
2022/11/12 07:54:51;;;;;;;24.73;12.80;;;;;;;10.33;59.75;101295.91;4415033;32;20167;-93
2022/11/12 07:57:16;;;;;;;22.77;12.73;;;;;;;10.38;59.75;101295.88;4415765;32;20152;-92
2022/11/12 07:59:42;;;;;;;25.50;11.93;;;;;;;10.63;59.77;101296.56;4415320;32;20134;-93
2022/11/12 08:02:08;;;;;;;33.45;15.63;;;;;;;10.92;59.78;101292.03;4421212;32;20172;-92
2022/11/12 08:04:34;;;;;;;26.37;14.95;;;;;;;11.13;59.79;101295.31;4411705;32;20088;-89
2022/11/12 08:06:59;;;;;;;26.37;13.70;;;;;;;11.35;59.80;101300.25;4427386;32;20151;-92
2022/11/12 08:09:36;;;;;;;30.50;13.80;;;;;;;11.60;59.81;101295.66;4415065;32;23984;-91
2022/11/12 08:12:08;;;;;;;25.98;13.62;;;;;;;11.64;59.82;101301.72;4425792;32;20126;-92
2022/11/12 08:14:35;;;;;;;28.15;14.68;;;;;;;11.88;59.83;101303.19;4419721;32;20458;-91
2022/11/12 08:17:00;;;;;;;27.30;15.13;;;;;;;12.05;59.84;101313.41;4413472;32;20080;-91
2022/11/12 08:19:26;;;;;;;33.28;14.43;;;;;;;12.22;59.85;101312.28;4414947;32;20135;-93
2022/11/12 08:21:51;;;;;;;30.17;16.15;;;;;;;12.40;59.86;101313.78;4414846;32;20155;-92
2022/11/12 08:24:17;;;;;;;27.92;15.50;;;;;;;12.47;59.86;101311.94;4414735;32;20127;-93
2022/11/12 08:26:42;;;;;;;31.90;16.50;;;;;;;12.46;59.86;101310.22;4414522;32;20139;-93
2022/11/12 08:29:08;;;;;;;29.37;16.25;;;;;;;12.57;59.86;101310.94;4414997;32;20513;-93
2022/11/12 08:31:33;;;;;;;32.13;18.40;;;;;;;12.48;59.86;101316.28;4415313;32;20105;-93
2022/11/12 08:34:10;;;;;;;28.90;16.45;;;;;;;12.76;59.88;101314.97;4413885;32;20149;-93
2022/11/12 08:36:36;;;;;;;31.50;15.95;;;;;;;12.93;59.89;101306.00;4426621;32;20151;-94
2022/11/12 08:39:01;;;;;;;30.70;16.58;;;;;;;13.06;59.90;101307.53;4428949;32;20144;-93
2022/11/12 08:41:27;;;;;;;27.65;15.52;;;;;;;13.18;59.90;101313.41;4412242;32;20093;-92
2022/11/12 08:43:52;;;;;;;31.12;16.23;;;;;;;13.33;59.91;101306.19;4412185;32;20088;-94
2022/11/12 08:46:18;;;;;;;31.02;15.30;;;;;;;13.26;59.90;101308.06;4412553;32;20102;-93
2022/11/12 08:48:43;;;;;;;26.50;15.80;;;;;;;13.20;59.91;101305.53;4425013;32;20137;-93
2022/11/12 08:51:09;;;;;;;29.80;17.00;;;;;;;13.21;59.90;101307.25;4412622;32;20203;-93
2022/11/12 08:53:34;;;;;;;35.92;15.55;;;;;;;13.48;59.91;101316.34;4415022;32;20128;-92
2022/11/12 08:56:00;;;;;;;30.65;16.62;;;;;;;13.51;59.92;101314.56;4411701;32;20105;-93
2022/11/12 08:58:25;;;;;;;32.00;16.12;;;;;;;13.71;59.93;101316.75;4411816;32;20102;-93
2022/11/12 09:00:51;;;;;;;34.90;16.00;;;;;;;13.79;59.93;101314.00;4430449;32;20429;-93
2022/11/12 09:03:18;;;;;;;29.75;16.23;;;;;;;13.92;59.94;101319.84;4413442;32;20104;-92
2022/11/12 09:05:43;;;;;;;27.95;15.60;;;;;;;13.93;59.94;101321.56;4427358;32;20157;-93
2022/11/12 09:08:11;;;;;;;34.10;17.48;;;;;;;13.86;59.93;101328.69;4424154;32;20142;-93
2022/11/12 09:10:36;;;;;;;36.08;17.75;;;;;;;13.81;59.94;101330.53;4413691;32;20168;-88
2022/11/12 09:13:02;;;;;;;34.97;18.40;;;;;;;13.80;59.94;101334.06;4452457;32;20124;-92
2022/11/12 09:15:28;;;;;;;31.23;16.77;;;;;;;13.80;59.94;101331.44;4411078;32;20140;-92
2022/11/12 09:17:55;;;;;;;35.00;17.60;;;;;;;13.75;59.93;101335.91;4411211;32;20105;-92
2022/11/12 09:20:20;;;;;;;31.37;17.55;;;;;;;13.71;59.93;101349.91;4414984;32;20113;-92
2022/11/12 09:22:45;;;;;;;31.83;17.20;;;;;;;13.58;59.93;101341.47;4411367;32;20101;-91
2022/11/12 09:25:11;;;;;;;34.30;17.50;;;;;;;13.58;59.93;101345.84;4428922;32;26526;-93
2022/11/12 09:27:36;;;;;;;34.70;16.62;;;;;;;13.52;59.92;101346.81;4413315;32;20518;-91
2022/11/12 09:30:03;;;;;;;35.25;18.33;;;;;;;13.48;59.91;101347.75;4413561;32;20155;-95
2022/11/12 09:32:29;;;;;;;36.15;17.73;;;;;;;13.56;59.92;101355.47;4424136;32;20140;-91
2022/11/12 09:34:54;;;;;;;36.33;18.20;;;;;;;13.59;59.92;101355.41;4423932;32;20165;-92
2022/11/12 09:37:19;;;;;;;34.88;18.05;;;;;;;13.50;59.92;101365.16;4411402;32;20900;-92
2022/11/12 09:39:45;;;;;;;34.13;19.62;;;;;;;13.39;59.91;101359.25;4424463;32;20385;-91
2022/11/12 09:42:18;;;;;;;34.67;18.33;;;;;;;13.56;59.91;101364.19;4409036;32;20468;-92
2022/11/12 09:44:56;;;;;;;34.08;18.58;;;;;;;13.61;59.92;101364.09;4417603;32;20716;-92
2022/11/12 09:47:45;;;;;;;39.97;19.55;;;;;;;13.53;59.92;101364.25;4427628;32;20116;-95
2022/11/12 09:50:29;;;;;;;35.95;19.15;;;;;;;13.49;59.92;101359.97;4430636;32;20101;-92
2022/11/12 09:53:10;;;;;;;38.22;19.15;;;;;;;13.50;59.92;101364.28;4441801;32;20160;-92
2022/11/12 09:55:38;;;;;;;40.10;19.05;;;;;;;13.62;59.93;101363.19;4412485;32;20088;-93
2022/11/12 09:58:14;;;;;;;33.25;18.40;;;;;;;13.52;59.93;101367.75;4408244;32;20170;-92
2022/11/12 10:00:40;;;;;;;31.08;18.08;;;;;;;13.72;59.92;101365.63;4419573;32;20109;-93
2022/11/12 10:03:10;;;;;;;34.47;18.77;;;;;;;13.65;59.94;101365.75;4413413;32;20103;-94
2022/11/12 10:05:41;;;;;;;35.80;17.23;;;;;;;13.78;59.93;101378.59;4402062;32;20169;-94
2022/11/12 10:08:42;;;;;;;35.55;18.23;;;;;;;13.92;59.93;101378.28;4405741;32;20151;-93
2022/11/12 10:12:30;;;;;;;40.65;17.58;;;;;;;13.98;59.94;101378.19;4437782;32;20105;-93
2022/11/12 10:14:22;;;;;;;;;;;;;;;14.19;59.96;101374.25;4454268;32;20097;-94
2022/11/12 10:16:56;;;;;;;35.67;18.70;;;;;;;14.27;59.96;101384.59;4426720;32;19972;-93
2022/11/12 10:19:45;;;;;;;34.83;18.83;;;;;;;14.29;59.96;101381.03;4426853;32;20469;-93
2022/11/12 10:22:16;;;;;;;32.33;17.02;;;;;;;14.32;59.96;101378.34;4413995;32;20192;-94
2022/11/12 10:24:41;;;;;;;36.00;18.27;;;;;;;14.49;59.98;101382.41;4437485;32;20093;-94
2022/11/12 10:27:17;;;;;;;32.58;19.83;;;;;;;14.58;59.98;101371.69;4413277;32;25112;-93
2022/11/12 10:29:57;;;;;;;38.10;18.33;;;;;;;14.74;59.99;101363.47;4426006;32;20512;-94
2022/11/12 10:32:23;;;;;;;34.25;17.98;;;;;;;14.94;60.00;101365.63;4402091;32;20131;-93
2022/11/12 10:34:48;;;;;;;32.65;17.80;;;;;;;15.16;60.01;101359.84;4410057;32;20108;-93
2022/11/12 10:37:37;;;;;;;28.83;17.00;;;;;;;15.31;60.01;101360.28;4425923;32;20077;-94
2022/11/12 10:40:35;;;;;;;32.50;16.77;;;;;;;15.55;60.02;101350.91;4427563;32;20459;-93
2022/11/12 10:43:21;;;;;;;27.15;14.40;;;;;;;15.57;60.04;101353.50;4414328;32;20129;-93
2022/11/12 10:45:48;;;;;;;29.42;15.80;;;;;;;15.56;60.03;101355.25;4413205;32;20108;-93
2022/11/12 10:48:31;;;;;;;25.17;15.07;;;;;;;15.63;60.04;101351.63;4413295;32;20089;-94
2022/11/12 10:50:57;;;;;;;27.77;14.77;;;;;;;15.74;60.04;101345.19;4428356;32;20152;-93
2022/11/12 10:53:32;;;;;;;26.15;14.52;;;;;;;15.88;60.05;101335.19;4414095;32;20113;-93
2022/11/12 10:55:59;;;;;;;31.85;15.23;;;;;;;15.91;60.04;101329.84;4425812;32;20465;-93
2022/11/12 10:58:24;;;;;;;26.23;14.93;;;;;;;15.84;60.04;101333.50;4413319;32;20074;-94
2022/11/12 11:01:00;;;;;;;24.05;14.30;;;;;;;16.16;60.07;101328.19;4413205;32;20431;-94
2022/11/12 11:03:28;;;;;;;26.33;13.90;;;;;;;16.03;60.06;101331.22;4412254;32;20108;-93
2022/11/12 11:06:05;;;;;;;25.62;13.75;;;;;;;15.91;60.05;101333.31;4413481;32;20442;-94
2022/11/12 11:08:36;;;;;;;28.10;14.10;;;;;;;16.05;60.05;101335.53;4415713;32;20113;-94
2022/11/12 11:11:16;;;;;;;26.08;14.23;;;;;;;16.17;60.06;101332.56;4413429;32;20462;-94
2022/11/12 11:13:46;;;;;;;27.90;15.00;;;;;;;16.14;60.06;101332.66;4416677;32;20101;-94
2022/11/12 11:16:26;;;;;;;26.35;15.75;;;;;;;16.26;60.07;101321.75;4413403;32;20085;-94
2022/11/12 11:18:54;;;;;;;26.58;14.70;;;;;;;16.41;60.07;101320.44;4414346;32;20154;-94
2022/11/12 11:21:19;;;;;;;31.37;15.63;;;;;;;16.38;60.07;101315.28;4413689;32;20373;-92
2022/11/12 11:23:54;;;;;;;27.15;13.55;;;;;;;16.45;60.08;101314.16;4430165;32;20090;-93
2022/11/12 11:26:39;;;;;;;25.48;14.65;;;;;;;16.55;60.09;101306.84;4431048;32;20115;-94
2022/11/12 11:29:41;;;;;;;25.88;14.27;;;;;;;16.69;60.08;101307.31;4427161;32;20092;-94
2022/11/12 11:32:17;;;;;;;27.87;14.68;;;;;;;16.56;60.08;101305.94;4438396;32;20104;-94
2022/11/12 11:34:58;;;;;;;26.33;14.32;;;;;;;16.82;60.10;101308.63;4426034;32;20148;-95
2022/11/12 11:37:26;;;;;;;29.42;15.00;;;;;;;16.78;60.10;101306.97;4440632;32;20093;-91
2022/11/12 11:40:10;;;;;;;27.13;14.15;;;;;;;16.76;60.09;101308.81;4428650;32;20088;-92